sensor_id;sensor_type;location;lat;lon;timestamp;P1;P2;P0
47810;PMS5003;33575;52.600;7.318;2023-10-09T00:02:26;5;4;
47810;PMS5003;33575;52.600;7.318;2023-10-09T00:04:56;5;5;
47810;PMS5003;33575;52.600;7.318;2023-10-09T00:07:26;7;5;
47810;PMS5003;33575;52.600;7.318;2023-10-09T00:09:57;4;4;
47810;PMS5003;33575;52.600;7.318;2023-10-09T00:12:27;6;5;
47810;PMS5003;33575;52.600;7.318;2023-10-09T00:14:58;8;6;
47810;PMS5003;33575;52.600;7.318;2023-10-09T00:17:28;7;4;
47810;PMS5003;33575;52.600;7.318;2023-10-09T00:19:58;4;4;
47810;PMS5003;33575;52.600;7.318;2023-10-09T00:22:29;7;5;
47810;PMS5003;33575;52.600;7.318;2023-10-09T00:24:59;6;6;
47810;PMS5003;33575;52.600;7.318;2023-10-09T00:27:29;6;5;
47810;PMS5003;33575;52.600;7.318;2023-10-09T00:30:00;5;5;
47810;PMS5003;33575;52.600;7.318;2023-10-09T00:32:30;5;5;
47810;PMS5003;33575;52.600;7.318;2023-10-09T00:35:01;7;6;
47810;PMS5003;33575;52.600;7.318;2023-10-09T00:37:31;6;6;
47810;PMS5003;33575;52.600;7.318;2023-10-09T00:40:02;4;4;
47810;PMS5003;33575;52.600;7.318;2023-10-09T00:42:32;8;6;
47810;PMS5003;33575;52.600;7.318;2023-10-09T00:45:03;6;6;
47810;PMS5003;33575;52.600;7.318;2023-10-09T00:47:33;7;6;
47810;PMS5003;33575;52.600;7.318;2023-10-09T00:50:03;7;5;
47810;PMS5003;33575;52.600;7.318;2023-10-09T00:52:33;6;6;
47810;PMS5003;33575;52.600;7.318;2023-10-09T00:55:04;8;7;
47810;PMS5003;33575;52.600;7.318;2023-10-09T00:57:34;16;9;
47810;PMS5003;33575;52.600;7.318;2023-10-09T01:00:05;6;5;
47810;PMS5003;33575;52.600;7.318;2023-10-09T01:02:35;13;9;
47810;PMS5003;33575;52.600;7.318;2023-10-09T01:05:05;8;8;
47810;PMS5003;33575;52.600;7.318;2023-10-09T01:07:35;13;8;
47810;PMS5003;33575;52.600;7.318;2023-10-09T01:10:06;11;10;
47810;PMS5003;33575;52.600;7.318;2023-10-09T01:12:36;13;12;
47810;PMS5003;33575;52.600;7.318;2023-10-09T01:15:06;10;10;
47810;PMS5003;33575;52.600;7.318;2023-10-09T01:17:37;9;9;
47810;PMS5003;33575;52.600;7.318;2023-10-09T01:20:07;10;9;
47810;PMS5003;33575;52.600;7.318;2023-10-09T01:22:37;14;13;
47810;PMS5003;33575;52.600;7.318;2023-10-09T01:25:08;22;15;
47810;PMS5003;33575;52.600;7.318;2023-10-09T01:27:38;15;14;
47810;PMS5003;33575;52.600;7.318;2023-10-09T01:30:09;15;15;
47810;PMS5003;33575;52.600;7.318;2023-10-09T01:32:39;12;12;
47810;PMS5003;33575;52.600;7.318;2023-10-09T01:35:09;13;12;
47810;PMS5003;33575;52.600;7.318;2023-10-09T01:37:39;16;12;
47810;PMS5003;33575;52.600;7.318;2023-10-09T01:40:10;14;13;
47810;PMS5003;33575;52.600;7.318;2023-10-09T01:42:41;14;11;
47810;PMS5003;33575;52.600;7.318;2023-10-09T01:45:12;15;13;
47810;PMS5003;33575;52.600;7.318;2023-10-09T01:47:42;15;15;
47810;PMS5003;33575;52.600;7.318;2023-10-09T01:50:12;21;17;
47810;PMS5003;33575;52.600;7.318;2023-10-09T01:52:43;20;18;
47810;PMS5003;33575;52.600;7.318;2023-10-09T01:55:13;19;17;
47810;PMS5003;33575;52.600;7.318;2023-10-09T01:57:43;16;14;
47810;PMS5003;33575;52.600;7.318;2023-10-09T02:00:14;18;16;
47810;PMS5003;33575;52.600;7.318;2023-10-09T02:02:44;17;16;
47810;PMS5003;33575;52.600;7.318;2023-10-09T02:05:14;15;14;
47810;PMS5003;33575;52.600;7.318;2023-10-09T02:07:45;19;17;
47810;PMS5003;33575;52.600;7.318;2023-10-09T02:10:15;23;18;
47810;PMS5003;33575;52.600;7.318;2023-10-09T02:12:45;24;18;
47810;PMS5003;33575;52.600;7.318;2023-10-09T02:15:15;16;14;
47810;PMS5003;33575;52.600;7.318;2023-10-09T02:17:46;15;14;
47810;PMS5003;33575;52.600;7.318;2023-10-09T02:20:17;28;18;
47810;PMS5003;33575;52.600;7.318;2023-10-09T02:22:47;16;14;
47810;PMS5003;33575;52.600;7.318;2023-10-09T02:25:17;21;19;
47810;PMS5003;33575;52.600;7.318;2023-10-09T02:27:47;17;14;
47810;PMS5003;33575;52.600;7.318;2023-10-09T02:30:18;17;15;
47810;PMS5003;33575;52.600;7.318;2023-10-09T02:32:48;21;18;
47810;PMS5003;33575;52.600;7.318;2023-10-09T02:35:18;18;18;
47810;PMS5003;33575;52.600;7.318;2023-10-09T02:37:48;22;17;
47810;PMS5003;33575;52.600;7.318;2023-10-09T02:40:19;21;18;
47810;PMS5003;33575;52.600;7.318;2023-10-09T02:42:49;23;20;
47810;PMS5003;33575;52.600;7.318;2023-10-09T02:45:20;24;19;
47810;PMS5003;33575;52.600;7.318;2023-10-09T02:47:50;19;17;
47810;PMS5003;33575;52.600;7.318;2023-10-09T02:50:20;22;20;
47810;PMS5003;33575;52.600;7.318;2023-10-09T02:52:50;19;19;
47810;PMS5003;33575;52.600;7.318;2023-10-09T02:55:21;23;22;
47810;PMS5003;33575;52.600;7.318;2023-10-09T02:57:52;21;20;
47810;PMS5003;33575;52.600;7.318;2023-10-09T03:00:23;22;19;
47810;PMS5003;33575;52.600;7.318;2023-10-09T03:02:53;25;21;
47810;PMS5003;33575;52.600;7.318;2023-10-09T03:05:23;23;21;
47810;PMS5003;33575;52.600;7.318;2023-10-09T03:07:54;27;20;
47810;PMS5003;33575;52.600;7.318;2023-10-09T03:10:24;21;20;
47810;PMS5003;33575;52.600;7.318;2023-10-09T03:12:54;29;19;
47810;PMS5003;33575;52.600;7.318;2023-10-09T03:15:25;24;23;
47810;PMS5003;33575;52.600;7.318;2023-10-09T03:17:55;23;22;
47810;PMS5003;33575;52.600;7.318;2023-10-09T03:20:25;25;25;
47810;PMS5003;33575;52.600;7.318;2023-10-09T03:22:56;24;22;
47810;PMS5003;33575;52.600;7.318;2023-10-09T03:25:26;23;22;
47810;PMS5003;33575;52.600;7.318;2023-10-09T03:27:57;25;24;
47810;PMS5003;33575;52.600;7.318;2023-10-09T03:30:28;28;24;
47810;PMS5003;33575;52.600;7.318;2023-10-09T03:32:59;29;25;
47810;PMS5003;33575;52.600;7.318;2023-10-09T03:35:29;35;27;
47810;PMS5003;33575;52.600;7.318;2023-10-09T03:37:59;37;26;
47810;PMS5003;33575;52.600;7.318;2023-10-09T03:40:29;29;27;
47810;PMS5003;33575;52.600;7.318;2023-10-09T03:43:00;30;24;
47810;PMS5003;33575;52.600;7.318;2023-10-09T03:45:30;32;28;
47810;PMS5003;33575;52.600;7.318;2023-10-09T03:48:01;29;27;
47810;PMS5003;33575;52.600;7.318;2023-10-09T03:50:31;34;28;
47810;PMS5003;33575;52.600;7.318;2023-10-09T03:53:02;37;28;
47810;PMS5003;33575;52.600;7.318;2023-10-09T03:55:32;31;27;
47810;PMS5003;33575;52.600;7.318;2023-10-09T03:58:02;40;35;
47810;PMS5003;33575;52.600;7.318;2023-10-09T04:00:33;42;33;
47810;PMS5003;33575;52.600;7.318;2023-10-09T04:03:04;49;34;
47810;PMS5003;33575;52.600;7.318;2023-10-09T04:05:33;47;37;
47810;PMS5003;33575;52.600;7.318;2023-10-09T04:08:04;37;31;
47810;PMS5003;33575;52.600;7.318;2023-10-09T04:10:34;36;31;
47810;PMS5003;33575;52.600;7.318;2023-10-09T04:13:04;37;34;
47810;PMS5003;33575;52.600;7.318;2023-10-09T04:15:35;45;34;
47810;PMS5003;33575;52.600;7.318;2023-10-09T04:18:05;37;34;
47810;PMS5003;33575;52.600;7.318;2023-10-09T04:20:36;35;30;
47810;PMS5003;33575;52.600;7.318;2023-10-09T04:23:06;31;29;
47810;PMS5003;33575;52.600;7.318;2023-10-09T04:25:37;42;32;
47810;PMS5003;33575;52.600;7.318;2023-10-09T04:28:07;44;33;
47810;PMS5003;33575;52.600;7.318;2023-10-09T04:30:38;36;29;
47810;PMS5003;33575;52.600;7.318;2023-10-09T04:33:08;41;31;
47810;PMS5003;33575;52.600;7.318;2023-10-09T04:35:38;37;28;
47810;PMS5003;33575;52.600;7.318;2023-10-09T04:38:09;36;31;
47810;PMS5003;33575;52.600;7.318;2023-10-09T04:40:39;37;29;
47810;PMS5003;33575;52.600;7.318;2023-10-09T04:43:10;42;33;
47810;PMS5003;33575;52.600;7.318;2023-10-09T04:45:40;39;33;
47810;PMS5003;33575;52.600;7.318;2023-10-09T04:48:11;42;34;
47810;PMS5003;33575;52.600;7.318;2023-10-09T04:50:41;41;32;
47810;PMS5003;33575;52.600;7.318;2023-10-09T04:53:12;44;36;
47810;PMS5003;33575;52.600;7.318;2023-10-09T04:55:41;42;35;
47810;PMS5003;33575;52.600;7.318;2023-10-09T04:58:12;39;38;
47810;PMS5003;33575;52.600;7.318;2023-10-09T05:00:42;31;29;
47810;PMS5003;33575;52.600;7.318;2023-10-09T05:03:13;45;35;
47810;PMS5003;33575;52.600;7.318;2023-10-09T05:05:43;45;34;
47810;PMS5003;33575;52.600;7.318;2023-10-09T05:08:13;36;33;
47810;PMS5003;33575;52.600;7.318;2023-10-09T05:10:43;34;30;
47810;PMS5003;33575;52.600;7.318;2023-10-09T05:13:13;42;35;
47810;PMS5003;33575;52.600;7.318;2023-10-09T05:15:43;44;33;
47810;PMS5003;33575;52.600;7.318;2023-10-09T05:18:14;36;31;
47810;PMS5003;33575;52.600;7.318;2023-10-09T05:20:44;36;33;
47810;PMS5003;33575;52.600;7.318;2023-10-09T05:23:14;46;38;
47810;PMS5003;33575;52.600;7.318;2023-10-09T05:25:45;45;36;
47810;PMS5003;33575;52.600;7.318;2023-10-09T05:28:15;39;34;
47810;PMS5003;33575;52.600;7.318;2023-10-09T05:30:45;47;39;
47810;PMS5003;33575;52.600;7.318;2023-10-09T05:33:16;33;32;
47810;PMS5003;33575;52.600;7.318;2023-10-09T05:35:46;36;33;
47810;PMS5003;33575;52.600;7.318;2023-10-09T05:38:17;48;34;
47810;PMS5003;33575;52.600;7.318;2023-10-09T05:40:47;46;38;
47810;PMS5003;33575;52.600;7.318;2023-10-09T05:43:17;43;35;
47810;PMS5003;33575;52.600;7.318;2023-10-09T05:45:48;46;38;
47810;PMS5003;33575;52.600;7.318;2023-10-09T05:48:18;36;35;
47810;PMS5003;33575;52.600;7.318;2023-10-09T05:50:49;49;37;
47810;PMS5003;33575;52.600;7.318;2023-10-09T05:53:19;45;36;
47810;PMS5003;33575;52.600;7.318;2023-10-09T05:55:50;44;31;
47810;PMS5003;33575;52.600;7.318;2023-10-09T05:58:20;45;38;
47810;PMS5003;33575;52.600;7.318;2023-10-09T06:00:51;39;36;
47810;PMS5003;33575;52.600;7.318;2023-10-09T06:03:22;37;31;
47810;PMS5003;33575;52.600;7.318;2023-10-09T06:05:53;41;36;
47810;PMS5003;33575;52.600;7.318;2023-10-09T06:08:23;36;33;
47810;PMS5003;33575;52.600;7.318;2023-10-09T06:10:53;45;35;
47810;PMS5003;33575;52.600;7.318;2023-10-09T06:13:23;37;34;
47810;PMS5003;33575;52.600;7.318;2023-10-09T06:15:53;44;33;
47810;PMS5003;33575;52.600;7.318;2023-10-09T06:18:24;42;35;
47810;PMS5003;33575;52.600;7.318;2023-10-09T06:20:55;35;32;
47810;PMS5003;33575;52.600;7.318;2023-10-09T06:23:25;39;35;
47810;PMS5003;33575;52.600;7.318;2023-10-09T06:25:56;37;34;
47810;PMS5003;33575;52.600;7.318;2023-10-09T06:28:26;34;31;
47810;PMS5003;33575;52.600;7.318;2023-10-09T06:30:57;44;34;
47810;PMS5003;33575;52.600;7.318;2023-10-09T06:33:27;46;37;
47810;PMS5003;33575;52.600;7.318;2023-10-09T06:35:57;37;32;
47810;PMS5003;33575;52.600;7.318;2023-10-09T06:38:27;43;32;
47810;PMS5003;33575;52.600;7.318;2023-10-09T06:40:58;40;32;
47810;PMS5003;33575;52.600;7.318;2023-10-09T06:43:28;36;34;
47810;PMS5003;33575;52.600;7.318;2023-10-09T06:46:00;41;31;
47810;PMS5003;33575;52.600;7.318;2023-10-09T06:48:29;36;32;
47810;PMS5003;33575;52.600;7.318;2023-10-09T06:51:02;43;34;
47810;PMS5003;33575;52.600;7.318;2023-10-09T06:53:31;41;36;
47810;PMS5003;33575;52.600;7.318;2023-10-09T06:56:01;48;35;
47810;PMS5003;33575;52.600;7.318;2023-10-09T06:58:32;36;31;
47810;PMS5003;33575;52.600;7.318;2023-10-09T07:01:03;36;35;
47810;PMS5003;33575;52.600;7.318;2023-10-09T07:03:32;39;34;
47810;PMS5003;33575;52.600;7.318;2023-10-09T07:06:03;41;32;
47810;PMS5003;33575;52.600;7.318;2023-10-09T07:08:32;41;33;
47810;PMS5003;33575;52.600;7.318;2023-10-09T07:11:03;36;34;
47810;PMS5003;33575;52.600;7.318;2023-10-09T07:13:33;44;35;
47810;PMS5003;33575;52.600;7.318;2023-10-09T07:16:03;40;35;
47810;PMS5003;33575;52.600;7.318;2023-10-09T07:18:33;35;31;
47810;PMS5003;33575;52.600;7.318;2023-10-09T07:21:04;49;36;
47810;PMS5003;33575;52.600;7.318;2023-10-09T07:23:35;35;33;
47810;PMS5003;33575;52.600;7.318;2023-10-09T07:26:05;41;32;
47810;PMS5003;33575;52.600;7.318;2023-10-09T07:28:36;40;31;
47810;PMS5003;33575;52.600;7.318;2023-10-09T07:31:07;37;33;
47810;PMS5003;33575;52.600;7.318;2023-10-09T07:33:37;32;31;
47810;PMS5003;33575;52.600;7.318;2023-10-09T07:36:07;43;32;
47810;PMS5003;33575;52.600;7.318;2023-10-09T07:38:37;33;30;
47810;PMS5003;33575;52.600;7.318;2023-10-09T07:41:08;30;28;
47810;PMS5003;33575;52.600;7.318;2023-10-09T07:43:38;37;31;
47810;PMS5003;33575;52.600;7.318;2023-10-09T07:46:09;34;31;
47810;PMS5003;33575;52.600;7.318;2023-10-09T07:48:39;42;32;
47810;PMS5003;33575;52.600;7.318;2023-10-09T07:51:11;38;29;
47810;PMS5003;33575;52.600;7.318;2023-10-09T07:53:40;31;28;
47810;PMS5003;33575;52.600;7.318;2023-10-09T07:56:10;42;32;
47810;PMS5003;33575;52.600;7.318;2023-10-09T07:58:40;35;29;
47810;PMS5003;33575;52.600;7.318;2023-10-09T08:01:11;30;29;
47810;PMS5003;33575;52.600;7.318;2023-10-09T08:03:41;30;28;
47810;PMS5003;33575;52.600;7.318;2023-10-09T08:06:12;38;31;
47810;PMS5003;33575;52.600;7.318;2023-10-09T08:08:42;31;30;
47810;PMS5003;33575;52.600;7.318;2023-10-09T08:11:12;41;31;
47810;PMS5003;33575;52.600;7.318;2023-10-09T08:13:43;28;26;
47810;PMS5003;33575;52.600;7.318;2023-10-09T08:16:13;32;26;
47810;PMS5003;33575;52.600;7.318;2023-10-09T08:18:43;35;31;
47810;PMS5003;33575;52.600;7.318;2023-10-09T08:21:14;38;28;
47810;PMS5003;33575;52.600;7.318;2023-10-09T08:23:45;31;30;
47810;PMS5003;33575;52.600;7.318;2023-10-09T08:26:16;34;29;
47810;PMS5003;33575;52.600;7.318;2023-10-09T08:28:46;44;29;
47810;PMS5003;33575;52.600;7.318;2023-10-09T08:31:17;35;26;
47810;PMS5003;33575;52.600;7.318;2023-10-09T08:33:50;31;26;
47810;PMS5003;33575;52.600;7.318;2023-10-09T08:36:17;30;27;
47810;PMS5003;33575;52.600;7.318;2023-10-09T08:38:47;42;30;
47810;PMS5003;33575;52.600;7.318;2023-10-09T08:41:19;31;26;
47810;PMS5003;33575;52.600;7.318;2023-10-09T08:43:49;33;26;
47810;PMS5003;33575;52.600;7.318;2023-10-09T08:46:19;34;30;
47810;PMS5003;33575;52.600;7.318;2023-10-09T08:48:50;30;26;
47810;PMS5003;33575;52.600;7.318;2023-10-09T08:51:20;36;32;
47810;PMS5003;33575;52.600;7.318;2023-10-09T08:53:50;38;28;
47810;PMS5003;33575;52.600;7.318;2023-10-09T08:56:21;39;29;
47810;PMS5003;33575;52.600;7.318;2023-10-09T08:58:52;30;28;
47810;PMS5003;33575;52.600;7.318;2023-10-09T09:01:22;30;28;
47810;PMS5003;33575;52.600;7.318;2023-10-09T09:03:53;36;28;
47810;PMS5003;33575;52.600;7.318;2023-10-09T09:06:22;35;27;
47810;PMS5003;33575;52.600;7.318;2023-10-09T09:08:53;36;31;
47810;PMS5003;33575;52.600;7.318;2023-10-09T09:11:23;29;28;
47810;PMS5003;33575;52.600;7.318;2023-10-09T09:16:25;30;26;
47810;PMS5003;33575;52.600;7.318;2023-10-09T09:18:55;27;25;
47810;PMS5003;33575;52.600;7.318;2023-10-09T09:21:25;32;30;
47810;PMS5003;33575;52.600;7.318;2023-10-09T09:23:56;31;27;
47810;PMS5003;33575;52.600;7.318;2023-10-09T09:28:57;35;29;
47810;PMS5003;33575;52.600;7.318;2023-10-09T09:31:27;35;28;
47810;PMS5003;33575;52.600;7.318;2023-10-09T09:33:57;32;27;
47810;PMS5003;33575;52.600;7.318;2023-10-09T09:36:27;30;28;
47810;PMS5003;33575;52.600;7.318;2023-10-09T09:38:58;32;28;
47810;PMS5003;33575;52.600;7.318;2023-10-09T09:41:29;27;26;
47810;PMS5003;33575;52.600;7.318;2023-10-09T09:43:59;34;24;
47810;PMS5003;33575;52.600;7.318;2023-10-09T09:46:30;29;26;
47810;PMS5003;33575;52.600;7.318;2023-10-09T09:48:59;26;26;
47810;PMS5003;33575;52.600;7.318;2023-10-09T09:51:29;26;26;
47810;PMS5003;33575;52.600;7.318;2023-10-09T09:54:00;27;24;
47810;PMS5003;33575;52.600;7.318;2023-10-09T09:56:30;30;25;
47810;PMS5003;33575;52.600;7.318;2023-10-09T09:59:02;34;28;
47810;PMS5003;33575;52.600;7.318;2023-10-09T10:01:32;27;25;
47810;PMS5003;33575;52.600;7.318;2023-10-09T10:04:03;26;24;
47810;PMS5003;33575;52.600;7.318;2023-10-09T10:06:32;31;28;
47810;PMS5003;33575;52.600;7.318;2023-10-09T10:09:03;29;25;
47810;PMS5003;33575;52.600;7.318;2023-10-09T10:14:04;28;23;
47810;PMS5003;33575;52.600;7.318;2023-10-09T10:16:34;34;25;
47810;PMS5003;33575;52.600;7.318;2023-10-09T10:19:04;25;23;
47810;PMS5003;33575;52.600;7.318;2023-10-09T10:21:35;26;24;
47810;PMS5003;33575;52.600;7.318;2023-10-09T10:26:36;23;22;
47810;PMS5003;33575;52.600;7.318;2023-10-09T10:34:09;22;22;
47810;PMS5003;33575;52.600;7.318;2023-10-09T10:36:39;32;26;
47810;PMS5003;33575;52.600;7.318;2023-10-09T10:39:09;25;23;
47810;PMS5003;33575;52.600;7.318;2023-10-09T10:41:40;27;22;
47810;PMS5003;33575;52.600;7.318;2023-10-09T10:44:11;31;26;
47810;PMS5003;33575;52.600;7.318;2023-10-09T10:46:41;35;28;
47810;PMS5003;33575;52.600;7.318;2023-10-09T10:49:11;23;22;
47810;PMS5003;33575;52.600;7.318;2023-10-09T10:51:42;29;25;
47810;PMS5003;33575;52.600;7.318;2023-10-09T10:54:12;33;27;
47810;PMS5003;33575;52.600;7.318;2023-10-09T10:56:42;29;25;
47810;PMS5003;33575;52.600;7.318;2023-10-09T10:59:12;30;25;
47810;PMS5003;33575;52.600;7.318;2023-10-09T11:01:43;22;21;
47810;PMS5003;33575;52.600;7.318;2023-10-09T11:04:15;27;25;
47810;PMS5003;33575;52.600;7.318;2023-10-09T11:06:44;24;21;
47810;PMS5003;33575;52.600;7.318;2023-10-09T11:09:14;32;23;
47810;PMS5003;33575;52.600;7.318;2023-10-09T11:11:45;20;19;
47810;PMS5003;33575;52.600;7.318;2023-10-09T11:14:16;26;24;
47810;PMS5003;33575;52.600;7.318;2023-10-09T11:16:46;20;18;
47810;PMS5003;33575;52.600;7.318;2023-10-09T11:19:19;22;17;
47810;PMS5003;33575;52.600;7.318;2023-10-09T11:21:46;24;20;
47810;PMS5003;33575;52.600;7.318;2023-10-09T11:24:16;27;21;
47810;PMS5003;33575;52.600;7.318;2023-10-09T11:26:47;18;17;
47810;PMS5003;33575;52.600;7.318;2023-10-09T11:29:17;18;18;
47810;PMS5003;33575;52.600;7.318;2023-10-09T11:34:18;25;20;
47810;PMS5003;33575;52.600;7.318;2023-10-09T11:36:48;18;15;
47810;PMS5003;33575;52.600;7.318;2023-10-09T11:39:23;18;16;
47810;PMS5003;33575;52.600;7.318;2023-10-09T11:41:49;19;17;
47810;PMS5003;33575;52.600;7.318;2023-10-09T11:44:33;18;16;
47810;PMS5003;33575;52.600;7.318;2023-10-09T11:49:20;19;16;
47810;PMS5003;33575;52.600;7.318;2023-10-09T11:51:50;18;17;
47810;PMS5003;33575;52.600;7.318;2023-10-09T11:56:50;18;17;
47810;PMS5003;33575;52.600;7.318;2023-10-09T11:59:20;17;16;
47810;PMS5003;33575;52.600;7.318;2023-10-09T12:01:51;18;16;
47810;PMS5003;33575;52.600;7.318;2023-10-09T12:04:21;17;15;
47810;PMS5003;33575;52.600;7.318;2023-10-09T12:06:51;17;15;
47810;PMS5003;33575;52.600;7.318;2023-10-09T12:09:21;24;16;
47810;PMS5003;33575;52.600;7.318;2023-10-09T12:11:56;18;14;
47810;PMS5003;33575;52.600;7.318;2023-10-09T12:14:22;12;12;
47810;PMS5003;33575;52.600;7.318;2023-10-09T12:16:52;14;13;
47810;PMS5003;33575;52.600;7.318;2023-10-09T12:19:22;17;15;
47810;PMS5003;33575;52.600;7.318;2023-10-09T12:21:53;14;12;
47810;PMS5003;33575;52.600;7.318;2023-10-09T12:24:24;15;13;
47810;PMS5003;33575;52.600;7.318;2023-10-09T12:26:54;13;12;
47810;PMS5003;33575;52.600;7.318;2023-10-09T12:29:24;14;12;
47810;PMS5003;33575;52.600;7.318;2023-10-09T12:31:55;12;11;
47810;PMS5003;33575;52.600;7.318;2023-10-09T12:34:26;18;14;
47810;PMS5003;33575;52.600;7.318;2023-10-09T12:36:57;14;12;
47810;PMS5003;33575;52.600;7.318;2023-10-09T12:39:27;12;11;
47810;PMS5003;33575;52.600;7.318;2023-10-09T12:41:57;16;13;
47810;PMS5003;33575;52.600;7.318;2023-10-09T12:44:28;15;13;
47810;PMS5003;33575;52.600;7.318;2023-10-09T12:46:58;19;15;
47810;PMS5003;33575;52.600;7.318;2023-10-09T12:49:28;13;11;
47810;PMS5003;33575;52.600;7.318;2023-10-09T12:51:59;10;9;
47810;PMS5003;33575;52.600;7.318;2023-10-09T12:54:29;13;11;
47810;PMS5003;33575;52.600;7.318;2023-10-09T12:57:00;11;10;
47810;PMS5003;33575;52.600;7.318;2023-10-09T12:59:30;12;11;
47810;PMS5003;33575;52.600;7.318;2023-10-09T13:02:00;11;11;
47810;PMS5003;33575;52.600;7.318;2023-10-09T13:04:31;12;12;
47810;PMS5003;33575;52.600;7.318;2023-10-09T13:07:01;16;13;
47810;PMS5003;33575;52.600;7.318;2023-10-09T13:09:31;10;10;
47810;PMS5003;33575;52.600;7.318;2023-10-09T13:12:02;11;10;
47810;PMS5003;33575;52.600;7.318;2023-10-09T13:14:33;10;10;
47810;PMS5003;33575;52.600;7.318;2023-10-09T13:17:03;10;10;
47810;PMS5003;33575;52.600;7.318;2023-10-09T13:19:33;12;10;
47810;PMS5003;33575;52.600;7.318;2023-10-09T13:22:04;10;9;
47810;PMS5003;33575;52.600;7.318;2023-10-09T13:24:34;12;11;
47810;PMS5003;33575;52.600;7.318;2023-10-09T13:27:04;10;10;
47810;PMS5003;33575;52.600;7.318;2023-10-09T13:29:35;13;9;
47810;PMS5003;33575;52.600;7.318;2023-10-09T13:32:05;13;12;
47810;PMS5003;33575;52.600;7.318;2023-10-09T13:34:35;9;8;
47810;PMS5003;33575;52.600;7.318;2023-10-09T13:37:05;7;7;
47810;PMS5003;33575;52.600;7.318;2023-10-09T13:39:36;11;11;
47810;PMS5003;33575;52.600;7.318;2023-10-09T13:42:06;9;8;
47810;PMS5003;33575;52.600;7.318;2023-10-09T13:44:36;8;8;
47810;PMS5003;33575;52.600;7.318;2023-10-09T13:47:07;9;8;
47810;PMS5003;33575;52.600;7.318;2023-10-09T13:49:37;8;8;
47810;PMS5003;33575;52.600;7.318;2023-10-09T13:52:07;11;8;
47810;PMS5003;33575;52.600;7.318;2023-10-09T13:54:37;10;10;
47810;PMS5003;33575;52.600;7.318;2023-10-09T13:57:08;11;6;
47810;PMS5003;33575;52.600;7.318;2023-10-09T13:59:38;8;6;
47810;PMS5003;33575;52.600;7.318;2023-10-09T14:02:09;8;6;
47810;PMS5003;33575;52.600;7.318;2023-10-09T14:04:39;10;8;
47810;PMS5003;33575;52.600;7.318;2023-10-09T14:07:09;7;7;
47810;PMS5003;33575;52.600;7.318;2023-10-09T14:09:40;8;7;
47810;PMS5003;33575;52.600;7.318;2023-10-09T14:12:10;8;8;
47810;PMS5003;33575;52.600;7.318;2023-10-09T14:14:41;7;6;
47810;PMS5003;33575;52.600;7.318;2023-10-09T14:17:10;6;6;
47810;PMS5003;33575;52.600;7.318;2023-10-09T14:19:41;7;6;
47810;PMS5003;33575;52.600;7.318;2023-10-09T14:22:11;8;7;
47810;PMS5003;33575;52.600;7.318;2023-10-09T14:24:41;7;7;
47810;PMS5003;33575;52.600;7.318;2023-10-09T14:27:11;10;8;
47810;PMS5003;33575;52.600;7.318;2023-10-09T14:29:42;6;5;
47810;PMS5003;33575;52.600;7.318;2023-10-09T14:32:12;8;6;
47810;PMS5003;33575;52.600;7.318;2023-10-09T14:34:43;6;6;
47810;PMS5003;33575;52.600;7.318;2023-10-09T14:37:12;8;7;
47810;PMS5003;33575;52.600;7.318;2023-10-09T14:39:43;8;7;
47810;PMS5003;33575;52.600;7.318;2023-10-09T14:42:13;8;6;
47810;PMS5003;33575;52.600;7.318;2023-10-09T14:44:43;7;6;
47810;PMS5003;33575;52.600;7.318;2023-10-09T14:47:13;8;7;
47810;PMS5003;33575;52.600;7.318;2023-10-09T14:49:46;8;7;
47810;PMS5003;33575;52.600;7.318;2023-10-09T14:52:14;5;5;
47810;PMS5003;33575;52.600;7.318;2023-10-09T14:54:44;8;7;
47810;PMS5003;33575;52.600;7.318;2023-10-09T14:57:14;6;6;
47810;PMS5003;33575;52.600;7.318;2023-10-09T14:59:45;8;6;
47810;PMS5003;33575;52.600;7.318;2023-10-09T15:02:15;3;3;
47810;PMS5003;33575;52.600;7.318;2023-10-09T15:04:45;6;6;
47810;PMS5003;33575;52.600;7.318;2023-10-09T15:07:20;6;4;
47810;PMS5003;33575;52.600;7.318;2023-10-09T15:09:46;5;4;
47810;PMS5003;33575;52.600;7.318;2023-10-09T15:12:16;7;7;
47810;PMS5003;33575;52.600;7.318;2023-10-09T15:14:46;5;5;
47810;PMS5003;33575;52.600;7.318;2023-10-09T15:17:16;4;4;
47810;PMS5003;33575;52.600;7.318;2023-10-09T15:19:47;7;6;
47810;PMS5003;33575;52.600;7.318;2023-10-09T15:22:17;6;5;
47810;PMS5003;33575;52.600;7.318;2023-10-09T15:24:47;4;4;
47810;PMS5003;33575;52.600;7.318;2023-10-09T15:27:18;6;5;
47810;PMS5003;33575;52.600;7.318;2023-10-09T15:29:48;5;5;
47810;PMS5003;33575;52.600;7.318;2023-10-09T15:32:18;3;3;
47810;PMS5003;33575;52.600;7.318;2023-10-09T15:34:48;5;5;
47810;PMS5003;33575;52.600;7.318;2023-10-09T15:37:19;4;4;
47810;PMS5003;33575;52.600;7.318;2023-10-09T15:39:49;6;4;
47810;PMS5003;33575;52.600;7.318;2023-10-09T15:42:19;3;3;
47810;PMS5003;33575;52.600;7.318;2023-10-09T15:44:50;4;4;
47810;PMS5003;33575;52.600;7.318;2023-10-09T15:47:20;4;4;
47810;PMS5003;33575;52.600;7.318;2023-10-09T15:49:50;2;2;
47810;PMS5003;33575;52.600;7.318;2023-10-09T15:52:20;6;5;
47810;PMS5003;33575;52.600;7.318;2023-10-09T15:54:50;5;5;
47810;PMS5003;33575;52.600;7.318;2023-10-09T15:57:21;3;3;
47810;PMS5003;33575;52.600;7.318;2023-10-09T15:59:51;5;4;
47810;PMS5003;33575;52.600;7.318;2023-10-09T16:02:21;5;5;
47810;PMS5003;33575;52.600;7.318;2023-10-09T16:04:52;5;5;
47810;PMS5003;33575;52.600;7.318;2023-10-09T16:07:22;6;6;
47810;PMS5003;33575;52.600;7.318;2023-10-09T16:09:52;8;6;
47810;PMS5003;33575;52.600;7.318;2023-10-09T16:12:22;7;5;
47810;PMS5003;33575;52.600;7.318;2023-10-09T16:14:52;7;4;
47810;PMS5003;33575;52.600;7.318;2023-10-09T16:17:23;6;6;
47810;PMS5003;33575;52.600;7.318;2023-10-09T16:19:53;5;5;
47810;PMS5003;33575;52.600;7.318;2023-10-09T16:22:23;6;5;
47810;PMS5003;33575;52.600;7.318;2023-10-09T16:24:54;6;5;
47810;PMS5003;33575;52.600;7.318;2023-10-09T16:27:25;4;4;
47810;PMS5003;33575;52.600;7.318;2023-10-09T16:29:55;5;5;
47810;PMS5003;33575;52.600;7.318;2023-10-09T16:32:25;8;6;
47810;PMS5003;33575;52.600;7.318;2023-10-09T16:34:55;9;7;
47810;PMS5003;33575;52.600;7.318;2023-10-09T16:37:25;6;6;
47810;PMS5003;33575;52.600;7.318;2023-10-09T16:39:56;5;5;
47810;PMS5003;33575;52.600;7.318;2023-10-09T16:42:26;6;6;
47810;PMS5003;33575;52.600;7.318;2023-10-09T16:44:56;6;6;
47810;PMS5003;33575;52.600;7.318;2023-10-09T16:47:27;6;5;
47810;PMS5003;33575;52.600;7.318;2023-10-09T16:49:57;7;7;
47810;PMS5003;33575;52.600;7.318;2023-10-09T16:52:27;6;6;
47810;PMS5003;33575;52.600;7.318;2023-10-09T16:54:57;7;6;
47810;PMS5003;33575;52.600;7.318;2023-10-09T16:57:28;10;8;
47810;PMS5003;33575;52.600;7.318;2023-10-09T16:59:58;7;6;
47810;PMS5003;33575;52.600;7.318;2023-10-09T17:02:29;8;5;
47810;PMS5003;33575;52.600;7.318;2023-10-09T17:04:59;5;5;
47810;PMS5003;33575;52.600;7.318;2023-10-09T17:07:29;4;4;
47810;PMS5003;33575;52.600;7.318;2023-10-09T17:09:59;7;5;